createdAt,value
2023-12-31T00:00:44.807Z,16.00
2023-12-31T00:07:32.469Z,15.45
2023-12-31T00:10:44.018Z,15.18
2023-12-31T00:13:50.051Z,15.65
2023-12-31T00:16:53.732Z,15.25
2023-12-31T00:19:59.802Z,15.52
2023-12-31T00:23:05.387Z,14.90
2023-12-31T00:26:09.582Z,15.70
2023-12-31T00:29:15.740Z,14.80
2023-12-31T00:32:19.478Z,16.95
2023-12-31T00:35:23.799Z,21.15
2023-12-31T00:38:29.178Z,14.90
2023-12-31T00:41:33.741Z,15.15
2023-12-31T00:44:37.308Z,15.77
2023-12-31T00:47:41.038Z,19.48
2023-12-31T00:50:46.111Z,15.27
2023-12-31T00:53:51.304Z,15.77
2023-12-31T00:56:55.339Z,16.02
2023-12-31T00:59:58.970Z,15.68
2023-12-31T01:03:03.296Z,14.95
2023-12-31T01:06:08.419Z,15.40
2023-12-31T01:09:16.957Z,14.55
2023-12-31T01:12:20.588Z,14.13
2023-12-31T01:15:24.566Z,15.35
2023-12-31T01:18:29.005Z,16.02
2023-12-31T01:21:32.637Z,15.65
2023-12-31T01:24:38.260Z,15.05
2023-12-31T01:27:42.260Z,16.27
2023-12-31T01:30:46.501Z,16.73
2023-12-31T01:33:50.250Z,15.48
2023-12-31T01:36:54.010Z,15.95
2023-12-31T01:39:59.903Z,16.45
2023-12-31T01:43:03.672Z,15.48
2023-12-31T01:46:08.223Z,16.10
2023-12-31T01:49:12.414Z,16.27
2023-12-31T01:52:16.255Z,15.43
2023-12-31T01:55:21.991Z,15.73
2023-12-31T01:58:26.346Z,15.15
2023-12-31T02:01:30.286Z,15.90
2023-12-31T02:04:53.777Z,15.38
2023-12-31T02:07:57.601Z,18.25
2023-12-31T02:11:04.165Z,14.88
2023-12-31T02:14:07.905Z,17.55
2023-12-31T02:17:11.577Z,15.65
2023-12-31T02:20:15.908Z,16.83
2023-12-31T02:23:19.549Z,14.05
2023-12-31T02:26:27.144Z,15.60
2023-12-31T02:29:33.159Z,15.85
2023-12-31T02:32:36.941Z,14.68
2023-12-31T02:35:42.095Z,16.67
2023-12-31T02:38:46.360Z,18.27
2023-12-31T02:41:53.609Z,17.58
2023-12-31T02:44:58.734Z,16.23
2023-12-31T02:48:02.664Z,17.27
2023-12-31T02:51:09.964Z,22.52
2023-12-31T02:54:13.499Z,16.33
2023-12-31T02:57:22.182Z,17.63
2023-12-31T03:00:26.037Z,15.30
2023-12-31T03:03:29.832Z,15.55
2023-12-31T03:06:40.158Z,15.23
2023-12-31T03:09:43.759Z,16.23
2023-12-31T03:12:48.965Z,16.05
2023-12-31T03:15:53.853Z,15.30
2023-12-31T03:18:58.134Z,16.17
2023-12-31T03:22:01.726Z,15.60
2023-12-31T03:25:06.875Z,15.45
2023-12-31T03:28:14.814Z,19.85
2023-12-31T03:31:18.358Z,20.65
2023-12-31T03:34:22.455Z,16.75
2023-12-31T03:37:26.336Z,17.20
2023-12-31T03:40:30.069Z,16.40
2023-12-31T03:43:35.135Z,16.92
2023-12-31T03:46:38.843Z,17.77
2023-12-31T03:49:45.133Z,18.45
2023-12-31T03:52:48.965Z,18.30
2023-12-31T03:55:52.634Z,18.88
2023-12-31T03:58:57.768Z,16.60
2023-12-31T04:02:01.565Z,17.58
2023-12-31T04:05:06.887Z,18.55
2023-12-31T04:08:10.688Z,17.05
2023-12-31T04:11:14.856Z,19.02
2023-12-31T04:14:20.053Z,18.33
2023-12-31T04:17:26.487Z,17.58
2023-12-31T04:20:30.120Z,18.17
2023-12-31T04:23:33.767Z,19.85
2023-12-31T04:26:37.805Z,17.70
2023-12-31T04:29:44.157Z,20.70
2023-12-31T04:34:12.943Z,17.80
2023-12-31T04:37:17.006Z,16.95
2023-12-31T04:40:20.976Z,15.25
2023-12-31T04:43:24.549Z,19.38
2023-12-31T04:46:28.414Z,23.73
2023-12-31T04:49:33.902Z,19.73
2023-12-31T04:52:37.521Z,16.10
2023-12-31T04:55:41.160Z,18.38
2023-12-31T04:58:44.842Z,18.08
2023-12-31T05:01:51.426Z,15.25
2023-12-31T05:04:56.785Z,15.27
2023-12-31T05:08:00.326Z,15.35
2023-12-31T05:11:04.548Z,15.52
2023-12-31T05:14:08.189Z,16.60
2023-12-31T05:17:11.803Z,16.88
2023-12-31T05:20:17.909Z,15.68
2023-12-31T05:23:21.618Z,16.52
2023-12-31T05:26:25.157Z,15.43
2023-12-31T05:29:31.694Z,16.05
2023-12-31T05:32:35.358Z,15.48
2023-12-31T05:35:40.383Z,15.10
2023-12-31T05:38:45.478Z,16.90
2023-12-31T05:41:51.071Z,14.98
2023-12-31T05:44:55.007Z,15.13
2023-12-31T05:47:58.883Z,16.15
2023-12-31T05:51:06.245Z,16.73
2023-12-31T05:54:13.019Z,15.07
2023-12-31T05:57:16.754Z,14.50
2023-12-31T06:00:20.665Z,15.43
2023-12-31T06:03:26.829Z,12.68
2023-12-31T06:06:36.163Z,14.57
2023-12-31T06:09:39.862Z,12.63
2023-12-31T06:12:43.680Z,12.32
2023-12-31T06:15:47.301Z,10.52
2023-12-31T06:18:50.940Z,10.68
2023-12-31T06:21:55.937Z,11.95
2023-12-31T06:25:01.927Z,11.18
2023-12-31T06:28:13.267Z,11.02
2023-12-31T06:31:17.165Z,11.55
2023-12-31T06:34:20.979Z,8.70
2023-12-31T06:37:26.990Z,9.27
2023-12-31T06:40:30.772Z,10.60
2023-12-31T06:43:34.365Z,9.82
2023-12-31T06:46:38.099Z,7.97
2023-12-31T06:49:42.491Z,9.23
2023-12-31T06:52:50.972Z,11.55
2023-12-31T06:55:54.595Z,11.82
2023-12-31T06:58:58.341Z,12.57
2023-12-31T07:02:02.104Z,11.30
2023-12-31T07:05:07.331Z,10.80
2023-12-31T07:08:12.357Z,10.07
2023-12-31T07:11:18.198Z,10.48
2023-12-31T07:14:25.577Z,11.55
2023-12-31T07:17:30.777Z,9.90
2023-12-31T07:20:34.767Z,13.07
2023-12-31T07:23:40.917Z,12.20
2023-12-31T07:26:51.991Z,10.73
2023-12-31T07:29:55.611Z,10.10
2023-12-31T07:32:59.465Z,10.90
2023-12-31T07:36:03.249Z,11.50
2023-12-31T07:39:08.250Z,11.40
2023-12-31T07:42:11.984Z,12.90
2023-12-31T07:45:15.771Z,13.13
2023-12-31T07:48:19.513Z,12.70
2023-12-31T07:51:23.090Z,13.27
2023-12-31T07:54:28.157Z,13.07
2023-12-31T07:57:31.878Z,12.98
2023-12-31T08:00:35.488Z,12.60
2023-12-31T08:03:39.606Z,12.48
2023-12-31T08:06:45.038Z,14.23
2023-12-31T08:09:50.240Z,15.10
2023-12-31T08:12:53.977Z,13.55
2023-12-31T08:15:57.678Z,12.93
2023-12-31T08:19:01.353Z,10.77
2023-12-31T08:22:05.162Z,10.55
2023-12-31T08:25:10.405Z,10.20
2023-12-31T08:28:14.162Z,9.07
2023-12-31T08:31:18.574Z,10.20
2023-12-31T08:34:22.538Z,11.70
2023-12-31T08:37:26.195Z,12.23
2023-12-31T08:40:31.348Z,11.18
2023-12-31T08:43:38.323Z,10.48
2023-12-31T08:46:42.368Z,12.30
2023-12-31T08:49:46.507Z,11.55
2023-12-31T08:52:50.785Z,12.43
2023-12-31T08:55:55.852Z,11.75
2023-12-31T08:58:59.583Z,11.43
2023-12-31T09:02:03.310Z,10.73
2023-12-31T09:05:07.640Z,11.27
2023-12-31T09:08:11.575Z,11.35
2023-12-31T09:11:17.921Z,11.73
2023-12-31T09:14:21.603Z,11.80
2023-12-31T09:17:25.331Z,14.25
2023-12-31T09:20:28.883Z,18.17
2023-12-31T09:23:32.433Z,16.05
2023-12-31T09:26:37.469Z,15.82
2023-12-31T09:29:41.106Z,13.32
2023-12-31T09:32:45.079Z,10.18
2023-12-31T09:35:48.948Z,8.77
2023-12-31T09:38:52.541Z,9.18
2023-12-31T09:42:02.371Z,10.23
2023-12-31T09:45:09.506Z,8.10
2023-12-31T09:48:15.731Z,12.50
2023-12-31T09:51:19.672Z,9.50
2023-12-31T09:54:24.277Z,9.85
2023-12-31T09:57:32.702Z,7.53
2023-12-31T10:00:36.660Z,5.47
2023-12-31T10:03:40.604Z,7.63
2023-12-31T10:06:45.026Z,10.07
2023-12-31T10:09:49.052Z,10.48
2023-12-31T10:12:53.897Z,8.20
2023-12-31T10:15:57.554Z,8.30
2023-12-31T10:19:01.778Z,7.97
2023-12-31T10:22:07.771Z,8.43
2023-12-31T10:25:15.971Z,7.57
2023-12-31T10:28:21.147Z,7.63
2023-12-31T10:34:19.414Z,7.25
2023-12-31T10:37:24.243Z,5.85
2023-12-31T10:40:28.461Z,8.00
2023-12-31T10:43:35.161Z,8.15
2023-12-31T10:46:43.670Z,8.20
2023-12-31T10:49:50.835Z,9.25
2023-12-31T10:52:59.116Z,5.28
2023-12-31T10:56:03.693Z,5.57
2023-12-31T10:59:07.925Z,5.40
2023-12-31T11:02:17.260Z,5.70
2023-12-31T11:05:24.013Z,5.43
2023-12-31T11:08:29.700Z,5.00
2023-12-31T11:11:33.332Z,5.68
2023-12-31T11:14:39.506Z,7.45
2023-12-31T11:18:10.764Z,7.50
2023-12-31T11:21:25.591Z,7.75
2023-12-31T11:24:29.753Z,5.53
2023-12-31T11:27:34.765Z,6.43
2023-12-31T11:30:51.363Z,5.55
2023-12-31T11:33:55.900Z,4.30
2023-12-31T11:37:02.933Z,6.40
2023-12-31T11:40:08.724Z,5.65
2023-12-31T11:43:14.384Z,8.18
2023-12-31T11:46:40.618Z,4.13
2023-12-31T11:49:48.222Z,5.10
2023-12-31T11:52:54.818Z,5.25
2023-12-31T11:55:59.999Z,5.75
2023-12-31T11:59:03.753Z,6.20
2023-12-31T12:02:09.209Z,5.05
2023-12-31T12:05:12.976Z,9.50
2023-12-31T12:08:18.512Z,4.35
2023-12-31T12:11:24.939Z,6.55
2023-12-31T12:14:28.762Z,6.50
2023-12-31T12:17:32.588Z,7.05
2023-12-31T12:20:38.119Z,4.93
2023-12-31T12:23:44.198Z,4.47
2023-12-31T12:26:51.743Z,3.90
2023-12-31T12:29:55.382Z,4.43
2023-12-31T12:33:03.890Z,4.55
2023-12-31T12:36:08.006Z,5.70
2023-12-31T12:39:16.763Z,3.95
2023-12-31T12:42:20.440Z,3.25
2023-12-31T12:45:24.401Z,3.67
2023-12-31T12:48:29.222Z,5.07
2023-12-31T12:51:34.624Z,7.03
2023-12-31T12:54:39.852Z,4.47
2023-12-31T12:57:43.956Z,5.22
2023-12-31T13:00:48.059Z,4.38
2023-12-31T13:03:53.182Z,4.22
2023-12-31T13:06:59.193Z,3.85
2023-12-31T13:10:04.124Z,5.18
2023-12-31T13:13:07.684Z,4.78
2023-12-31T13:16:18.485Z,4.85
2023-12-31T13:19:26.362Z,4.82
2023-12-31T13:22:32.753Z,7.28
2023-12-31T13:25:38.324Z,4.57
2023-12-31T13:28:41.892Z,3.50
2023-12-31T13:31:45.639Z,5.15
2023-12-31T13:34:49.292Z,5.40
2023-12-31T13:37:52.890Z,5.15
2023-12-31T13:40:58.073Z,5.15
2023-12-31T13:44:01.933Z,4.55
2023-12-31T13:47:06.031Z,4.82
2023-12-31T13:50:10.124Z,4.10
2023-12-31T13:53:15.833Z,3.30
2023-12-31T13:56:20.921Z,3.10
2023-12-31T13:59:24.564Z,2.17
2023-12-31T14:02:28.233Z,2.50
2023-12-31T14:05:33.751Z,2.10
2023-12-31T14:08:38.208Z,2.40
2023-12-31T14:11:43.626Z,2.08
2023-12-31T14:15:05.869Z,3.05
2023-12-31T14:18:10.124Z,2.75
2023-12-31T14:21:13.854Z,2.25
2023-12-31T14:24:18.026Z,2.30
2023-12-31T14:27:23.022Z,3.00
2023-12-31T14:30:37.382Z,3.10
2023-12-31T14:33:42.415Z,2.35
2023-12-31T14:36:46.126Z,2.70
2023-12-31T14:39:51.072Z,1.85
2023-12-31T14:42:56.630Z,2.35
2023-12-31T14:46:00.176Z,3.85
2023-12-31T14:49:07.371Z,2.90
2023-12-31T14:52:12.167Z,3.33
2023-12-31T14:55:15.988Z,2.83
2023-12-31T14:58:23.203Z,11.77
2023-12-31T15:01:28.737Z,9.77
2023-12-31T15:04:32.353Z,4.60
2023-12-31T15:07:36.135Z,11.02
2023-12-31T15:10:41.488Z,6.18
2023-12-31T15:13:47.041Z,8.10
2023-12-31T15:16:53.778Z,5.38
2023-12-31T15:19:57.644Z,6.32
2023-12-31T15:23:01.399Z,8.55
2023-12-31T15:26:05.362Z,17.92
2023-12-31T15:29:10.612Z,9.40
2023-12-31T15:32:14.403Z,4.40
2023-12-31T15:35:19.240Z,6.32
2023-12-31T15:38:23.106Z,13.45
2023-12-31T15:41:28.358Z,16.38
2023-12-31T15:44:33.309Z,5.97
2023-12-31T15:47:37.046Z,10.68
2023-12-31T15:50:40.592Z,30.10
2023-12-31T15:53:44.147Z,39.55
2023-12-31T15:56:50.869Z,16.73
2023-12-31T15:59:55.793Z,8.13
2023-12-31T16:02:59.354Z,7.65
2023-12-31T16:06:03.432Z,8.85
2023-12-31T16:09:07.293Z,5.20
2023-12-31T16:12:11.072Z,3.60
2023-12-31T16:15:15.932Z,4.10
2023-12-31T16:18:21.472Z,6.10
2023-12-31T16:21:25.208Z,5.03
2023-12-31T16:24:28.767Z,6.75
2023-12-31T16:27:32.398Z,8.65
2023-12-31T16:34:12.241Z,11.93
2023-12-31T16:37:15.842Z,10.85
2023-12-31T16:40:19.430Z,9.05
2023-12-31T16:43:24.166Z,8.88
2023-12-31T16:46:27.972Z,3.92
2023-12-31T16:49:33.347Z,8.02
2023-12-31T16:52:37.291Z,17.80
2023-12-31T16:55:41.083Z,16.90
2023-12-31T16:58:44.734Z,12.13
2023-12-31T17:01:48.727Z,14.00
2023-12-31T17:04:53.719Z,16.48
2023-12-31T17:07:57.345Z,12.85
2023-12-31T17:11:01.292Z,8.43
2023-12-31T17:14:05.184Z,12.15
2023-12-31T17:17:08.911Z,16.08
2023-12-31T17:20:14.463Z,17.48
2023-12-31T17:23:19.630Z,12.57
2023-12-31T17:26:23.546Z,15.00
2023-12-31T17:29:27.110Z,17.60
2023-12-31T17:32:30.787Z,12.40
2023-12-31T17:35:35.861Z,15.07
2023-12-31T17:38:39.431Z,11.48
2023-12-31T17:41:51.979Z,16.17
2023-12-31T17:44:55.774Z,16.83
2023-12-31T17:47:59.533Z,12.45
2023-12-31T17:51:07.204Z,15.20
2023-12-31T17:54:10.775Z,9.48
2023-12-31T17:57:14.443Z,14.40
2023-12-31T18:00:19.461Z,17.13
2023-12-31T18:03:24.394Z,13.07
2023-12-31T18:06:29.416Z,10.30
2023-12-31T18:09:33.042Z,13.40
2023-12-31T18:12:36.613Z,21.60
2023-12-31T18:15:40.218Z,22.23
2023-12-31T18:18:43.731Z,17.40
2023-12-31T18:21:48.704Z,14.23
2023-12-31T18:24:52.357Z,16.55
2023-12-31T18:27:56.024Z,10.15
2023-12-31T18:30:59.680Z,13.52
2023-12-31T18:34:03.860Z,7.03
2023-12-31T18:37:08.776Z,9.60
2023-12-31T18:40:12.902Z,10.27
2023-12-31T18:43:16.502Z,5.10
2023-12-31T18:46:20.572Z,9.90
2023-12-31T18:49:26.679Z,17.70
2023-12-31T18:52:32.177Z,8.82
2023-12-31T18:55:35.786Z,6.20
2023-12-31T18:58:39.533Z,6.10
2023-12-31T19:01:43.531Z,5.57
2023-12-31T19:04:47.254Z,7.82
2023-12-31T19:07:52.504Z,8.80
2023-12-31T19:10:56.288Z,8.98
2023-12-31T19:13:59.984Z,7.30
2023-12-31T19:17:04.384Z,22.70
2023-12-31T19:20:10.861Z,7.03
2023-12-31T19:23:16.734Z,9.95
2023-12-31T19:26:21.793Z,9.52
2023-12-31T19:29:25.354Z,6.90
2023-12-31T19:32:29.752Z,9.23
2023-12-31T19:35:33.583Z,7.60
2023-12-31T19:38:38.688Z,7.00
2023-12-31T19:41:42.244Z,5.45
2023-12-31T19:44:46.051Z,9.85
2023-12-31T19:47:51.791Z,5.43
2023-12-31T19:50:56.441Z,5.72
2023-12-31T19:54:01.446Z,8.25
2023-12-31T19:57:05.205Z,7.25
2023-12-31T20:00:09.854Z,7.10
2023-12-31T20:03:17.504Z,10.13
2023-12-31T20:06:21.201Z,7.30
2023-12-31T20:09:26.171Z,8.85
2023-12-31T20:12:30.022Z,8.40
2023-12-31T20:15:33.804Z,9.73
2023-12-31T20:18:37.830Z,7.07
2023-12-31T20:21:41.659Z,7.53
2023-12-31T20:24:46.699Z,8.05
2023-12-31T20:27:50.298Z,8.25
2023-12-31T20:30:54.040Z,8.60
2023-12-31T20:33:57.836Z,12.38
2023-12-31T20:37:03.313Z,9.45
2023-12-31T20:40:09.792Z,8.57
2023-12-31T20:43:13.547Z,8.30
2023-12-31T20:46:17.351Z,13.15
2023-12-31T20:49:21.270Z,7.72
2023-12-31T20:52:24.923Z,10.07
2023-12-31T20:55:32.331Z,9.98
2023-12-31T20:58:36.765Z,9.18
2023-12-31T21:01:42.993Z,11.05
2023-12-31T21:04:46.690Z,18.08
2023-12-31T21:07:50.376Z,13.27
2023-12-31T21:10:57.763Z,13.80
2023-12-31T21:14:01.399Z,16.93
2023-12-31T21:17:05.386Z,14.95
2023-12-31T21:20:10.562Z,12.73
2023-12-31T21:23:14.211Z,16.80
2023-12-31T21:26:20.622Z,22.02
2023-12-31T21:29:24.265Z,17.95
2023-12-31T21:32:28.165Z,17.67
2023-12-31T21:35:31.844Z,17.60
2023-12-31T21:38:35.450Z,16.70
2023-12-31T21:41:41.361Z,15.73
2023-12-31T21:44:46.664Z,20.17
2023-12-31T21:47:50.211Z,55.90
2023-12-31T21:50:53.849Z,24.55
2023-12-31T21:53:57.455Z,38.28
2023-12-31T21:57:04.826Z,40.92
2023-12-31T22:00:11.603Z,22.50
2023-12-31T22:03:15.199Z,18.20
2023-12-31T22:06:19.609Z,24.17
2023-12-31T22:09:23.588Z,12.48
2023-12-31T22:12:28.557Z,13.43
2023-12-31T22:15:32.741Z,12.93
2023-12-31T22:18:37.670Z,13.35
2023-12-31T22:21:43.199Z,11.90
2023-12-31T22:25:06.896Z,7.80
2023-12-31T22:28:31.248Z,5.93
2023-12-31T22:34:12.214Z,8.80
2023-12-31T22:37:15.796Z,8.95
2023-12-31T22:40:20.082Z,6.18
2023-12-31T22:43:25.213Z,7.75
2023-12-31T22:46:29.908Z,6.00
2023-12-31T22:49:34.848Z,6.30
2023-12-31T22:52:38.513Z,7.50
2023-12-31T22:55:42.382Z,9.43
2023-12-31T22:58:46.069Z,5.97
2023-12-31T23:01:49.797Z,14.45
2023-12-31T23:04:54.476Z,59.42
2023-12-31T23:07:57.778Z,109.63
2023-12-31T23:11:01.117Z,116.72
2023-12-31T23:14:04.536Z,152.38
2023-12-31T23:17:07.884Z,97.85
2023-12-31T23:20:13.386Z,64.15
2023-12-31T23:23:16.735Z,74.30
2023-12-31T23:26:21.984Z,54.42
2023-12-31T23:29:26.030Z,53.30
2023-12-31T23:32:29.323Z,58.25
2023-12-31T23:35:34.301Z,69.45
2023-12-31T23:38:37.526Z,81.70
2023-12-31T23:41:45.030Z,100.03
2023-12-31T23:44:50.851Z,98.28
2023-12-31T23:47:54.301Z,109.63
2023-12-31T23:50:58.981Z,115.35
2023-12-31T23:54:02.479Z,126.57
2023-12-31T23:57:05.804Z,124.88
